createdAt,value
2024-02-29T00:00:35.721Z,9.745955
2024-02-29T00:01:35.644Z,9.745955
2024-02-29T00:02:35.553Z,9.745955
2024-02-29T00:03:35.587Z,9.745424
2024-02-29T00:04:35.585Z,9.745449
2024-02-29T00:05:35.533Z,9.746203
2024-02-29T00:06:35.548Z,9.746418
2024-02-29T00:07:35.527Z,9.746418
2024-02-29T00:08:35.544Z,9.746418
2024-02-29T00:09:35.570Z,9.746418
2024-02-29T00:10:35.514Z,9.746418
2024-02-29T00:11:35.501Z,9.746418
2024-02-29T00:12:35.559Z,9.746418
2024-02-29T00:13:35.517Z,9.746418
2024-02-29T00:14:35.504Z,9.746418
2024-02-29T00:15:35.517Z,9.746418
2024-02-29T00:16:35.461Z,9.746418
2024-02-29T00:17:35.487Z,9.746418
2024-02-29T00:18:35.490Z,9.746418
2024-02-29T00:19:35.449Z,9.745127
2024-02-29T00:20:35.431Z,9.745127
2024-02-29T00:21:35.456Z,9.745393
2024-02-29T00:22:35.449Z,9.745255
2024-02-29T00:23:35.454Z,9.745857
2024-02-29T00:24:35.402Z,9.745823
2024-02-29T00:25:35.535Z,9.745248
2024-02-29T00:26:35.390Z,9.745280
2024-02-29T00:27:35.423Z,9.745061
2024-02-29T00:28:35.409Z,9.744887
2024-02-29T00:29:35.368Z,9.744617
2024-02-29T00:30:35.415Z,9.745062
2024-02-29T00:31:35.361Z,9.745917
2024-02-29T00:32:35.559Z,9.745729
2024-02-29T00:33:35.369Z,9.745605
2024-02-29T00:34:35.337Z,9.745571
2024-02-29T00:35:35.326Z,9.745499
2024-02-29T00:36:35.419Z,9.745419
2024-02-29T00:37:35.350Z,9.745544
2024-02-29T00:38:35.299Z,9.745705
2024-02-29T00:39:35.312Z,9.745845
2024-02-29T00:40:35.286Z,9.745715
2024-02-29T00:41:35.311Z,9.745856
2024-02-29T00:42:35.307Z,9.745956
2024-02-29T00:43:35.271Z,9.745370
2024-02-29T00:44:35.257Z,9.745653
2024-02-29T00:45:35.274Z,9.745434
2024-02-29T00:46:35.269Z,9.745381
2024-02-29T00:47:36.265Z,9.745230
2024-02-29T00:48:35.266Z,9.745705
2024-02-29T00:49:35.230Z,9.745414
2024-02-29T00:50:35.286Z,9.745404
2024-02-29T00:51:35.304Z,9.745885
2024-02-29T00:52:35.210Z,9.746181
2024-02-29T00:53:35.198Z,9.745804
2024-02-29T00:54:35.235Z,9.745436
2024-02-29T00:55:35.204Z,9.746070
2024-02-29T00:56:35.205Z,9.746240
2024-02-29T00:57:35.208Z,9.745646
2024-02-29T00:58:35.160Z,9.745520
2024-02-29T00:59:35.149Z,9.745512
2024-02-29T01:00:35.209Z,9.745595
2024-02-29T01:01:35.227Z,9.745836
2024-02-29T01:02:35.133Z,9.745599
2024-02-29T01:03:35.521Z,9.745580
2024-02-29T01:05:07.059Z,9.745599
2024-02-29T01:05:35.107Z,9.745619
2024-02-29T01:06:35.128Z,9.745599
2024-02-29T01:07:35.102Z,9.745486
2024-02-29T01:08:35.088Z,9.745530
2024-02-29T01:09:35.142Z,9.745738
2024-02-29T01:10:35.072Z,9.745523
2024-02-29T01:11:35.075Z,9.745978
2024-02-29T01:12:35.134Z,9.745672
2024-02-29T01:13:35.051Z,9.745557
2024-02-29T01:14:35.061Z,9.745304
2024-02-29T01:15:35.064Z,9.745647
2024-02-29T01:16:35.039Z,9.745726
2024-02-29T01:17:35.073Z,9.745296
2024-02-29T01:18:35.073Z,9.745269
2024-02-29T01:19:35.036Z,9.745782
2024-02-29T01:20:35.009Z,9.745697
2024-02-29T01:21:35.086Z,9.745930
2024-02-29T01:22:34.997Z,9.745305
2024-02-29T01:23:35.011Z,9.745375
2024-02-29T01:24:35.030Z,9.745455
2024-02-29T01:25:34.961Z,9.745327
2024-02-29T01:26:34.949Z,9.745375
2024-02-29T01:27:34.968Z,9.745179
2024-02-29T01:28:34.956Z,9.745714
2024-02-29T01:29:34.924Z,9.745519
2024-02-29T01:30:34.971Z,9.745522
2024-02-29T01:31:34.945Z,9.745573
2024-02-29T01:32:37.660Z,9.745531
2024-02-29T01:33:34.955Z,9.746027
2024-02-29T01:34:34.885Z,9.745772
2024-02-29T01:35:34.896Z,9.745633
2024-02-29T01:36:34.894Z,9.745682
2024-02-29T01:37:34.894Z,9.745378
2024-02-29T01:38:34.861Z,9.745569
2024-02-29T01:39:34.854Z,9.745606
2024-02-29T01:40:34.838Z,9.745606
2024-02-29T01:41:34.837Z,9.745606
2024-02-29T01:42:34.952Z,9.745606
2024-02-29T01:43:34.817Z,9.745606
2024-02-29T01:44:34.810Z,9.745606
2024-02-29T01:45:34.866Z,9.745774
2024-02-29T01:46:34.799Z,9.745921
2024-02-29T01:47:34.873Z,9.745734
2024-02-29T01:48:34.830Z,9.745667
2024-02-29T01:49:34.793Z,9.745640
2024-02-29T01:50:34.783Z,9.745490
2024-02-29T01:51:34.823Z,9.745587
2024-02-29T01:52:34.790Z,9.745620
2024-02-29T01:53:34.953Z,9.745509
2024-02-29T01:54:35.774Z,9.745512
2024-02-29T01:55:34.721Z,9.745487
2024-02-29T01:56:34.748Z,9.745484
2024-02-29T01:57:34.763Z,9.745409
2024-02-29T01:58:34.716Z,9.745350
2024-02-29T01:59:34.762Z,9.745434
2024-02-29T02:00:34.700Z,9.745442
2024-02-29T02:01:34.977Z,9.745497
2024-02-29T02:02:34.709Z,9.745534
2024-02-29T02:03:34.717Z,9.745416
2024-02-29T02:04:34.686Z,9.745463
2024-02-29T02:05:34.656Z,9.745544
2024-02-29T02:06:34.741Z,9.745512
2024-02-29T02:07:34.652Z,9.745420
2024-02-29T02:08:34.628Z,9.745440
2024-02-29T02:09:34.669Z,9.745457
2024-02-29T02:10:34.623Z,9.745399
2024-02-29T02:11:34.649Z,9.745492
2024-02-29T02:12:34.691Z,9.745428
2024-02-29T02:13:34.592Z,9.745425
2024-02-29T02:14:34.587Z,9.745443
2024-02-29T02:15:34.677Z,9.745530
2024-02-29T02:16:34.607Z,9.745369
2024-02-29T02:17:34.583Z,9.745642
2024-02-29T02:18:34.613Z,9.745769
2024-02-29T02:19:34.583Z,9.745463
2024-02-29T02:20:34.574Z,9.745728
2024-02-29T02:21:34.590Z,9.745271
2024-02-29T02:22:34.520Z,9.745579
2024-02-29T02:23:34.519Z,9.745420
2024-02-29T02:24:34.602Z,9.745410
2024-02-29T02:25:34.528Z,9.745215
2024-02-29T02:26:34.494Z,9.745399
2024-02-29T02:27:34.522Z,9.745418
2024-02-29T02:28:34.487Z,9.745430
2024-02-29T02:29:34.478Z,9.746077
2024-02-29T02:30:34.559Z,9.745914
2024-02-29T02:31:34.458Z,9.745823
2024-02-29T02:32:34.462Z,9.745461
2024-02-29T02:33:34.453Z,9.745407
2024-02-29T02:34:34.489Z,9.745373
2024-02-29T02:35:34.465Z,9.745439
2024-02-29T02:36:34.450Z,9.745774
2024-02-29T02:37:34.415Z,9.745495
2024-02-29T02:38:34.422Z,9.745420
2024-02-29T02:39:34.442Z,9.745378
2024-02-29T02:40:34.418Z,9.745432
2024-02-29T02:41:34.391Z,9.745322
2024-02-29T02:42:34.423Z,9.745372
2024-02-29T02:43:34.373Z,9.745378
2024-02-29T02:44:34.400Z,9.745386
2024-02-29T02:45:34.417Z,9.745404
2024-02-29T02:46:34.353Z,9.745375
2024-02-29T02:47:34.386Z,9.745326
2024-02-29T02:48:34.363Z,9.745522
2024-02-29T02:49:34.350Z,9.745535
2024-02-29T02:50:34.410Z,9.745615
2024-02-29T02:51:34.378Z,9.745595
2024-02-29T02:52:34.302Z,9.745571
2024-02-29T02:53:34.329Z,9.745617
2024-02-29T02:54:34.339Z,9.745612
2024-02-29T02:55:34.292Z,9.745629
2024-02-29T02:56:34.275Z,9.745579
2024-02-29T02:57:34.293Z,9.745818
2024-02-29T02:58:34.296Z,9.744883
2024-02-29T02:59:34.270Z,9.745459
2024-02-29T03:00:34.286Z,9.745709
2024-02-29T03:01:34.274Z,9.745799
2024-02-29T03:02:34.234Z,9.745520
2024-02-29T03:03:34.278Z,9.745373
2024-02-29T03:04:34.218Z,9.745249
2024-02-29T03:05:34.210Z,9.745778
2024-02-29T03:06:34.266Z,9.745799
2024-02-29T03:07:34.226Z,9.745499
2024-02-29T03:08:34.216Z,9.745380
2024-02-29T03:09:34.280Z,9.745311
2024-02-29T03:10:34.180Z,9.745632
2024-02-29T03:11:34.222Z,9.745600
2024-02-29T03:12:34.226Z,9.745336
2024-02-29T03:13:34.155Z,9.744904
2024-02-29T03:14:34.177Z,9.745800
2024-02-29T03:15:34.186Z,9.745613
2024-02-29T03:16:34.463Z,9.745349
2024-02-29T03:17:34.228Z,9.745292
2024-02-29T03:18:34.136Z,9.745292
2024-02-29T03:19:34.113Z,9.745292
2024-02-29T03:20:34.107Z,9.745292
2024-02-29T03:21:34.236Z,9.745292
2024-02-29T03:22:34.113Z,9.745292
2024-02-29T03:23:34.099Z,9.745292
2024-02-29T03:24:34.118Z,9.745292
2024-02-29T03:25:34.082Z,9.745292
2024-02-29T03:26:34.086Z,9.745292
2024-02-29T03:27:34.116Z,9.745253
2024-02-29T03:28:34.044Z,9.745337
2024-02-29T03:29:34.043Z,9.745472
2024-02-29T03:30:34.065Z,9.745535
2024-02-29T03:31:34.052Z,9.745535
2024-02-29T03:32:34.044Z,9.745535
2024-02-29T03:33:34.037Z,9.745535
2024-02-29T03:34:34.002Z,9.745535
2024-02-29T03:35:34.006Z,9.745535
2024-02-29T03:36:34.035Z,9.745436
2024-02-29T03:37:33.978Z,9.745436
2024-02-29T03:38:33.971Z,9.745436
2024-02-29T03:39:34.014Z,9.745436
2024-02-29T03:40:33.984Z,9.745436
2024-02-29T03:41:33.983Z,9.745436
2024-02-29T03:42:33.983Z,9.745436
2024-02-29T03:43:33.945Z,9.745436
2024-02-29T03:44:33.939Z,9.745436
2024-02-29T03:45:34.007Z,9.745436
2024-02-29T03:46:33.912Z,9.746900
2024-02-29T03:47:33.936Z,9.746141
2024-02-29T03:48:33.997Z,9.746093
2024-02-29T03:49:33.893Z,9.746093
2024-02-29T03:50:33.909Z,9.746093
2024-02-29T03:51:33.911Z,9.746093
2024-02-29T03:52:33.876Z,9.746093
2024-02-29T03:53:33.869Z,9.746093
2024-02-29T03:54:33.901Z,9.746093
2024-02-29T03:55:33.869Z,9.745418
2024-02-29T03:56:33.837Z,9.745791
2024-02-29T03:57:33.840Z,9.745654
2024-02-29T03:58:33.823Z,9.745500
2024-02-29T03:59:33.847Z,9.745373
2024-02-29T04:00:33.845Z,9.745513
2024-02-29T04:01:33.889Z,9.745387
2024-02-29T04:02:33.796Z,9.745378
2024-02-29T04:03:33.802Z,9.745321
2024-02-29T04:04:33.810Z,9.745445
2024-02-29T04:05:33.763Z,9.745624
2024-02-29T04:06:33.782Z,9.745510
2024-02-29T04:07:33.757Z,9.745385
2024-02-29T04:08:33.744Z,9.745425
2024-02-29T04:09:33.817Z,9.745422
2024-02-29T04:10:33.737Z,9.745473
2024-02-29T04:11:33.723Z,9.745461
2024-02-29T04:12:33.756Z,9.745438
2024-02-29T04:13:33.730Z,9.745369
2024-02-29T04:14:33.729Z,9.745296
2024-02-29T04:15:33.741Z,9.745420
2024-02-29T04:16:33.682Z,9.745429
2024-02-29T04:17:33.916Z,9.745510
2024-02-29T04:18:33.817Z,9.745499
2024-02-29T04:19:33.669Z,9.745580
2024-02-29T04:20:33.654Z,9.745490
2024-02-29T04:21:33.693Z,9.745527
2024-02-29T04:22:33.645Z,9.745550
2024-02-29T04:23:33.668Z,9.745600
2024-02-29T04:24:33.658Z,9.745458
2024-02-29T04:25:33.625Z,9.745466
2024-02-29T04:26:33.617Z,9.745364
2024-02-29T04:27:33.715Z,9.745467
2024-02-29T04:28:33.677Z,9.745455
2024-02-29T04:29:33.623Z,9.745400
2024-02-29T04:30:33.644Z,9.745545
2024-02-29T04:31:33.600Z,9.745584
2024-02-29T04:32:33.611Z,9.745736
2024-02-29T04:33:33.610Z,9.744938
2024-02-29T04:34:33.624Z,9.744940
2024-02-29T04:35:33.560Z,9.745071
2024-02-29T04:36:33.641Z,9.745383
2024-02-29T04:37:33.581Z,9.745487
2024-02-29T04:38:33.525Z,9.745460
2024-02-29T04:39:33.553Z,9.745484
2024-02-29T04:40:33.522Z,9.745337
2024-02-29T04:41:33.529Z,9.745433
2024-02-29T04:42:33.552Z,9.745852
2024-02-29T04:43:33.493Z,9.745482
2024-02-29T04:44:33.478Z,9.745520
2024-02-29T04:45:33.483Z,9.745347
2024-02-29T04:46:33.494Z,9.745477
2024-02-29T04:47:33.511Z,9.745724
2024-02-29T04:48:33.474Z,9.745677
2024-02-29T04:49:33.443Z,9.746327
2024-02-29T04:50:33.448Z,9.746031
2024-02-29T04:51:33.482Z,9.745600
2024-02-29T04:52:33.430Z,9.745754
2024-02-29T04:53:33.412Z,9.745028
2024-02-29T04:54:33.451Z,9.745154
2024-02-29T04:55:33.396Z,9.745484
2024-02-29T04:56:33.427Z,9.744845
2024-02-29T04:57:33.385Z,9.745215
2024-02-29T04:58:33.394Z,9.745522
2024-02-29T04:59:33.378Z,9.745824
2024-02-29T05:00:33.453Z,9.745830
2024-02-29T05:01:33.492Z,9.745659
2024-02-29T05:02:33.346Z,9.745552
2024-02-29T05:03:33.400Z,9.745234
2024-02-29T05:04:33.332Z,9.745223
2024-02-29T05:05:33.356Z,9.745358
2024-02-29T05:06:33.404Z,9.745377
2024-02-29T05:07:33.314Z,9.745317
2024-02-29T05:08:33.306Z,9.745407
2024-02-29T05:09:33.315Z,9.745232
2024-02-29T05:10:33.323Z,9.745478
2024-02-29T05:11:35.053Z,9.745487
2024-02-29T05:12:33.309Z,9.745335
2024-02-29T05:13:33.285Z,9.745378
2024-02-29T05:14:33.286Z,9.745314
2024-02-29T05:15:33.295Z,9.745336
2024-02-29T05:16:33.261Z,9.745135
2024-02-29T05:17:33.272Z,9.745497
2024-02-29T05:18:33.261Z,9.745532
2024-02-29T05:19:33.253Z,9.745405
2024-02-29T05:20:33.227Z,9.745636
2024-02-29T05:21:33.227Z,9.745564
2024-02-29T05:22:35.238Z,9.745306
2024-02-29T05:23:33.229Z,9.745701
2024-02-29T05:24:33.251Z,9.745647
2024-02-29T05:25:33.182Z,9.745126
2024-02-29T05:26:33.190Z,9.745196
2024-02-29T05:27:33.197Z,9.745550
2024-02-29T05:28:33.187Z,9.745645
2024-02-29T05:29:33.188Z,9.745835
2024-02-29T05:30:33.131Z,9.745819
2024-02-29T05:31:34.144Z,9.745424
2024-02-29T05:32:33.151Z,9.745275
2024-02-29T05:33:33.242Z,9.745596
2024-02-29T05:34:33.131Z,9.745136
2024-02-29T05:35:33.113Z,9.745436
2024-02-29T05:36:33.275Z,9.745752
2024-02-29T05:37:33.105Z,9.745653
2024-02-29T05:38:33.124Z,9.745634
2024-02-29T05:39:33.146Z,9.745541
2024-02-29T05:40:33.142Z,9.745582
2024-02-29T05:41:33.065Z,9.745366
2024-02-29T05:42:33.133Z,9.745526
2024-02-29T05:43:35.512Z,9.745616
2024-02-29T05:44:34.044Z,9.745515
2024-02-29T05:45:33.069Z,9.745513
2024-02-29T05:46:33.038Z,9.745493
2024-02-29T05:47:33.100Z,9.745507
2024-02-29T05:48:33.036Z,9.745520
2024-02-29T05:49:33.029Z,9.745481
2024-02-29T05:50:34.536Z,9.745418
2024-02-29T05:51:34.044Z,9.745529
2024-02-29T05:52:33.027Z,9.745436
2024-02-29T05:53:32.990Z,9.745393
2024-02-29T05:54:33.031Z,9.745378
2024-02-29T05:55:32.959Z,9.745368
2024-02-29T05:56:32.991Z,9.745114
2024-02-29T05:57:32.989Z,9.745227
2024-02-29T05:58:33.028Z,9.744999
2024-02-29T05:59:32.940Z,9.745267
2024-02-29T06:00:33.043Z,9.745459
2024-02-29T06:01:32.993Z,9.745126
2024-02-29T06:02:32.913Z,9.745059
2024-02-29T06:03:32.949Z,9.745060
2024-02-29T06:04:32.906Z,9.745210
2024-02-29T06:05:32.907Z,9.745410
2024-02-29T06:06:32.919Z,9.745130
2024-02-29T06:07:32.881Z,9.745544
2024-02-29T06:08:32.870Z,9.745434
2024-02-29T06:09:32.892Z,9.745420
2024-02-29T06:10:32.874Z,9.745860
2024-02-29T06:11:32.908Z,9.745509
2024-02-29T06:12:32.888Z,9.745477
2024-02-29T06:13:32.843Z,9.745242
2024-02-29T06:14:32.827Z,9.745225
2024-02-29T06:15:32.852Z,9.745377
2024-02-29T06:16:32.805Z,9.745253
2024-02-29T06:17:32.849Z,9.745193
2024-02-29T06:18:32.859Z,9.745143
2024-02-29T06:19:32.788Z,9.745202
2024-02-29T06:20:32.805Z,9.745276
2024-02-29T06:21:32.876Z,9.745454
2024-02-29T06:22:32.775Z,9.745242
2024-02-29T06:23:32.787Z,9.745222
2024-02-29T06:24:32.805Z,9.745367
2024-02-29T06:25:32.770Z,9.745382
2024-02-29T06:26:32.811Z,9.745007
2024-02-29T06:27:32.783Z,9.745131
2024-02-29T06:28:32.827Z,9.745316
2024-02-29T06:29:32.735Z,9.744752
2024-02-29T06:30:33.026Z,9.745296
2024-02-29T06:31:32.707Z,9.744911
2024-02-29T06:32:32.709Z,9.744809
2024-02-29T06:33:32.732Z,9.745152
2024-02-29T06:34:32.716Z,9.745296
2024-02-29T06:35:32.683Z,9.745417
2024-02-29T06:36:32.690Z,9.745597
2024-02-29T06:37:32.703Z,9.745597
2024-02-29T06:38:32.665Z,9.745457
2024-02-29T06:39:32.694Z,9.745588
2024-02-29T06:40:32.657Z,9.745175
2024-02-29T06:41:32.631Z,9.744841
2024-02-29T06:42:32.629Z,9.745028
2024-02-29T06:43:33.435Z,9.745245
2024-02-29T06:44:32.665Z,9.745214
2024-02-29T06:45:32.620Z,9.745306
2024-02-29T06:46:32.593Z,9.745188
2024-02-29T06:47:32.605Z,9.745100
2024-02-29T06:48:32.608Z,9.744940
2024-02-29T06:49:32.563Z,9.744697
2024-02-29T06:50:32.566Z,9.744825
2024-02-29T06:51:32.553Z,9.745600
2024-02-29T06:52:32.548Z,9.745905
2024-02-29T06:53:32.578Z,9.745214
2024-02-29T06:54:32.537Z,9.745508
2024-02-29T06:55:32.519Z,9.745416
2024-02-29T06:56:32.521Z,9.745421
2024-02-29T06:57:32.535Z,9.745311
2024-02-29T06:58:32.520Z,9.745606
2024-02-29T06:59:32.497Z,9.745691
2024-02-29T07:00:32.484Z,9.745571
2024-02-29T07:01:32.565Z,9.745688
2024-02-29T07:02:32.507Z,9.745346
2024-02-29T07:03:32.484Z,9.745653
2024-02-29T07:04:32.460Z,9.745505
2024-02-29T07:06:05.082Z,9.745512
2024-02-29T07:06:32.439Z,9.745406
2024-02-29T07:07:32.453Z,9.745463
2024-02-29T07:08:32.431Z,9.745502
2024-02-29T07:09:32.416Z,9.745552
2024-02-29T07:10:32.439Z,9.745580
2024-02-29T07:11:32.454Z,9.745609
2024-02-29T07:12:32.416Z,9.745491
2024-02-29T07:13:32.389Z,9.745600
2024-02-29T07:14:32.392Z,9.745611
2024-02-29T07:15:32.366Z,9.745328
2024-02-29T07:16:32.397Z,9.745129
2024-02-29T07:17:32.411Z,9.745410
2024-02-29T07:18:32.360Z,9.745505
2024-02-29T07:19:32.353Z,9.745725
2024-02-29T07:20:32.331Z,9.745553
2024-02-29T07:21:32.339Z,9.745603
2024-02-29T07:22:32.312Z,9.745552
2024-02-29T07:23:32.308Z,9.745586
2024-02-29T07:24:32.303Z,9.745541
2024-02-29T07:25:32.309Z,9.745531
2024-02-29T07:26:32.319Z,9.745599
2024-02-29T07:27:32.269Z,9.745402
2024-02-29T07:28:32.272Z,9.745363
2024-02-29T07:29:32.258Z,9.745464
2024-02-29T07:30:32.372Z,9.745405
2024-02-29T07:31:32.261Z,9.745489
2024-02-29T07:32:32.250Z,9.745439
2024-02-29T07:33:32.230Z,9.745492
2024-02-29T07:34:32.235Z,9.745546
2024-02-29T07:35:32.270Z,9.745649
2024-02-29T07:36:32.198Z,9.745569
2024-02-29T07:37:32.196Z,9.745613
2024-02-29T07:38:32.195Z,9.745562
2024-02-29T07:39:32.206Z,9.745522
2024-02-29T07:40:32.195Z,9.745524
2024-02-29T07:41:32.161Z,9.745490
2024-02-29T07:42:32.243Z,9.745562
2024-02-29T07:43:32.180Z,9.745494
2024-02-29T07:44:32.165Z,9.745546
2024-02-29T07:45:32.123Z,9.745550
2024-02-29T07:46:32.115Z,9.745566
2024-02-29T07:47:32.134Z,9.745574
2024-02-29T07:48:32.146Z,9.745604
2024-02-29T07:49:32.120Z,9.745537
2024-02-29T07:50:32.085Z,9.745570
2024-02-29T07:51:32.087Z,9.745607
2024-02-29T07:52:32.080Z,9.745590
2024-02-29T07:53:32.104Z,9.745551
2024-02-29T07:54:32.062Z,9.745591
2024-02-29T07:55:32.053Z,9.745591
2024-02-29T07:56:32.037Z,9.745708
2024-02-29T07:57:32.043Z,9.745605
2024-02-29T07:58:32.056Z,9.745806
2024-02-29T07:59:32.011Z,9.745896
2024-02-29T08:00:32.018Z,9.745761
2024-02-29T08:01:32.067Z,9.745707
2024-02-29T08:02:32.014Z,9.745578
2024-02-29T08:03:32.020Z,9.745582
2024-02-29T08:04:31.982Z,9.745608
2024-02-29T08:05:31.973Z,9.745488
2024-02-29T08:06:31.971Z,9.745425
2024-02-29T08:07:31.985Z,9.745487
2024-02-29T08:08:31.948Z,9.745646
2024-02-29T08:09:31.935Z,9.745523
2024-02-29T08:10:31.930Z,9.745549
2024-02-29T08:11:32.979Z,9.745513
2024-02-29T08:12:31.945Z,9.745318
2024-02-29T08:13:31.918Z,9.745516
2024-02-29T08:14:31.900Z,9.745565
2024-02-29T08:15:31.895Z,9.745536
2024-02-29T08:16:31.920Z,9.745561
2024-02-29T08:17:31.928Z,9.745586
2024-02-29T08:18:31.962Z,9.745565
2024-02-29T08:19:31.869Z,9.745534
2024-02-29T08:20:31.859Z,9.745566
2024-02-29T08:21:31.891Z,9.745329
2024-02-29T08:22:31.875Z,9.745002
2024-02-29T08:23:31.829Z,9.745373
2024-02-29T08:24:31.826Z,9.745645
2024-02-29T08:25:31.816Z,9.745408
2024-02-29T08:26:31.834Z,9.745642
2024-02-29T08:27:31.800Z,9.745455
2024-02-29T08:28:31.799Z,9.745676
2024-02-29T08:29:31.802Z,9.745753
2024-02-29T08:30:31.796Z,9.745623
2024-02-29T08:31:31.828Z,9.745539
2024-02-29T08:32:31.811Z,9.745550
2024-02-29T08:33:31.759Z,9.745491
2024-02-29T08:34:31.738Z,9.745541
2024-02-29T08:35:31.788Z,9.745586
2024-02-29T08:36:31.755Z,9.745549
2024-02-29T08:37:31.724Z,9.745586
2024-02-29T08:38:31.722Z,9.745698
2024-02-29T08:39:31.718Z,9.745595
2024-02-29T08:40:31.749Z,9.745278
2024-02-29T08:41:31.692Z,9.745428
2024-02-29T08:42:31.687Z,9.745624
2024-02-29T08:43:31.686Z,9.745402
2024-02-29T08:44:31.662Z,9.745439
2024-02-29T08:45:32.693Z,9.745012
2024-02-29T08:46:31.709Z,9.745455
2024-02-29T08:47:31.673Z,9.745586
2024-02-29T08:48:31.628Z,9.745810
2024-02-29T08:49:31.684Z,9.745552
2024-02-29T08:50:31.753Z,9.745460
2024-02-29T08:51:31.616Z,9.745404
2024-02-29T08:52:31.654Z,9.745681
2024-02-29T08:53:31.600Z,9.745434
2024-02-29T08:54:31.612Z,9.745511
2024-02-29T08:55:31.671Z,9.745626
2024-02-29T08:56:31.615Z,9.745753
2024-02-29T08:57:31.564Z,9.745667
2024-02-29T08:58:31.585Z,9.745300
2024-02-29T08:59:31.577Z,9.745538
2024-02-29T09:00:31.544Z,9.745411
2024-02-29T09:01:31.590Z,9.745631
2024-02-29T09:02:31.538Z,9.745616
2024-02-29T09:03:31.558Z,9.745328
2024-02-29T09:04:31.542Z,9.745530
2024-02-29T09:05:31.505Z,9.745628
2024-02-29T09:06:40.847Z,9.745770
2024-02-29T09:07:33.520Z,9.746616
2024-02-29T09:08:31.525Z,9.746413
2024-02-29T09:09:31.484Z,9.745924
2024-02-29T09:10:31.523Z,9.745688
2024-02-29T09:11:31.478Z,9.745621
2024-02-29T09:12:31.499Z,9.745594
2024-02-29T09:13:35.625Z,9.745697
2024-02-29T09:14:31.438Z,9.745545
2024-02-29T09:15:31.438Z,9.745592
2024-02-29T09:16:31.443Z,9.745638
2024-02-29T09:17:31.463Z,9.745527
2024-02-29T09:18:31.696Z,9.745373
2024-02-29T09:19:31.439Z,9.745307
2024-02-29T09:20:31.392Z,9.745479
2024-02-29T09:21:31.385Z,9.745384
2024-02-29T09:22:31.416Z,9.745198
2024-02-29T09:23:31.365Z,9.745377
2024-02-29T09:24:31.366Z,9.745093
2024-02-29T09:25:31.355Z,9.745480
2024-02-29T09:26:31.338Z,9.745503
2024-02-29T09:27:31.388Z,9.745631
2024-02-29T09:28:31.329Z,9.745568
2024-02-29T09:29:34.180Z,9.745452
2024-02-29T09:30:31.310Z,9.745700
2024-02-29T09:31:31.375Z,9.745434
2024-02-29T09:32:31.344Z,9.745590
2024-02-29T09:33:31.297Z,9.745506
2024-02-29T09:34:32.773Z,9.745692
2024-02-29T09:35:31.295Z,9.745264
2024-02-29T09:36:31.291Z,9.745485
2024-02-29T09:37:31.329Z,9.745539
2024-02-29T09:38:31.274Z,9.745651
2024-02-29T09:39:31.240Z,9.745772
2024-02-29T09:40:41.488Z,9.745525
2024-02-29T09:42:33.214Z,9.745634
2024-02-29T09:43:31.214Z,9.745658
2024-02-29T09:44:31.222Z,9.745556
2024-02-29T09:45:31.243Z,9.745555
2024-02-29T09:46:31.214Z,9.745769
2024-02-29T09:47:31.293Z,9.745489
2024-02-29T09:48:31.181Z,9.745468
2024-02-29T09:49:31.160Z,9.745311
2024-02-29T09:50:31.220Z,9.745430
2024-02-29T09:51:31.157Z,9.745177
2024-02-29T09:52:31.165Z,9.745108
2024-02-29T09:53:31.152Z,9.745150
2024-02-29T09:54:31.127Z,9.745255
2024-02-29T09:55:31.165Z,9.745218
2024-02-29T09:56:31.110Z,9.745295
2024-02-29T09:57:31.104Z,9.745331
2024-02-29T09:58:31.098Z,9.745343
2024-02-29T09:59:31.130Z,9.745343
2024-02-29T10:00:31.109Z,9.745408
2024-02-29T10:01:31.225Z,9.745460
2024-02-29T10:02:31.086Z,9.745370
2024-02-29T10:03:31.061Z,9.745396
2024-02-29T10:04:31.100Z,9.745481
2024-02-29T10:05:31.045Z,9.745573
2024-02-29T10:06:31.050Z,9.745374
2024-02-29T10:07:31.030Z,9.745309
2024-02-29T10:08:31.027Z,9.745893
2024-02-29T10:09:31.040Z,9.745411
2024-02-29T10:10:31.099Z,9.745245
2024-02-29T10:11:31.114Z,9.745189
2024-02-29T10:12:30.986Z,9.745266
2024-02-29T10:13:31.061Z,9.745408
2024-02-29T10:14:31.002Z,9.745328
2024-02-29T10:15:30.973Z,9.745370
2024-02-29T10:16:31.561Z,9.745345
2024-02-29T10:17:31.224Z,9.745236
2024-02-29T10:18:30.971Z,9.745797
2024-02-29T10:19:30.950Z,9.745702
2024-02-29T10:20:30.926Z,9.745491
2024-02-29T10:21:30.920Z,9.745475
2024-02-29T10:22:30.947Z,9.745533
2024-02-29T10:23:30.927Z,9.745428
2024-02-29T10:24:30.896Z,9.745516
2024-02-29T10:25:30.935Z,9.745774
2024-02-29T10:26:30.880Z,9.745697
2024-02-29T10:27:30.934Z,9.745916
2024-02-29T10:28:30.897Z,9.745695
2024-02-29T10:29:30.897Z,9.745507
2024-02-29T10:30:30.890Z,9.745585
2024-02-29T10:31:30.844Z,9.745565
2024-02-29T10:32:30.885Z,9.745378
2024-02-29T10:33:30.821Z,9.745663
2024-02-29T10:34:30.854Z,9.745692
2024-02-29T10:35:30.831Z,9.745569
2024-02-29T10:36:30.804Z,9.745364
2024-02-29T10:37:30.813Z,9.745454
2024-02-29T10:38:30.792Z,9.745515
2024-02-29T10:39:30.791Z,9.745499
2024-02-29T10:40:30.855Z,9.745597
2024-02-29T10:41:30.757Z,9.745552
2024-02-29T10:42:31.908Z,9.745531
2024-02-29T10:43:30.747Z,9.745512
2024-02-29T10:44:30.734Z,9.745501
2024-02-29T10:45:30.732Z,9.745284
2024-02-29T10:46:30.749Z,9.745311
2024-02-29T10:47:30.749Z,9.745305
2024-02-29T10:48:30.698Z,9.745502
2024-02-29T10:49:30.728Z,9.745515
2024-02-29T10:50:30.692Z,9.745642
2024-02-29T10:51:30.722Z,9.745475
2024-02-29T10:52:30.746Z,9.745305
2024-02-29T10:53:30.672Z,9.745698
2024-02-29T10:54:30.663Z,9.745697
2024-02-29T10:55:30.726Z,9.745317
2024-02-29T10:56:30.733Z,9.745489
2024-02-29T10:57:30.636Z,9.745378
2024-02-29T10:58:30.629Z,9.745418
2024-02-29T10:59:30.620Z,9.745440
2024-02-29T11:00:30.646Z,9.745377
2024-02-29T11:01:30.666Z,9.745587
2024-02-29T11:02:30.601Z,9.745669
2024-02-29T11:03:30.605Z,9.745561
2024-02-29T11:04:30.639Z,9.745291
2024-02-29T11:05:30.620Z,9.745430
2024-02-29T11:06:30.569Z,9.745461
2024-02-29T11:07:30.576Z,9.745539
2024-02-29T11:08:30.547Z,9.745613
2024-02-29T11:09:30.543Z,9.745003
2024-02-29T11:10:30.582Z,9.745435
2024-02-29T11:11:30.556Z,9.745069
2024-02-29T11:12:30.547Z,9.745427
2024-02-29T11:13:30.596Z,9.745601
2024-02-29T11:14:30.512Z,9.745348
2024-02-29T11:15:30.511Z,9.745423
2024-02-29T11:16:30.578Z,9.745463
2024-02-29T11:17:30.552Z,9.745517
2024-02-29T11:18:30.457Z,9.745396
2024-02-29T11:19:35.088Z,9.745388
2024-02-29T11:20:32.801Z,9.745407
2024-02-29T11:21:31.447Z,9.745289
2024-02-29T11:22:30.432Z,9.745291
2024-02-29T11:23:30.436Z,9.745316
2024-02-29T11:24:30.469Z,9.745178
2024-02-29T11:25:30.633Z,9.745297
2024-02-29T11:26:30.406Z,9.744761
2024-02-29T11:27:30.394Z,9.744623
2024-02-29T11:28:30.432Z,9.744633
2024-02-29T11:29:30.403Z,9.745064
2024-02-29T11:30:30.367Z,9.745207
2024-02-29T11:31:30.372Z,9.745712
2024-02-29T11:32:30.465Z,9.745311
2024-02-29T11:33:30.417Z,9.744943
2024-02-29T11:34:30.395Z,9.745252
2024-02-29T11:35:30.359Z,9.745928
2024-02-29T11:36:30.345Z,9.745532
2024-02-29T11:37:33.824Z,9.745125
2024-02-29T11:38:36.507Z,9.745035
2024-02-29T11:39:32.307Z,9.745193
2024-02-29T11:40:30.296Z,9.745563
2024-02-29T11:41:30.293Z,9.745766
2024-02-29T11:42:30.297Z,9.745831
2024-02-29T11:43:30.365Z,9.745688
2024-02-29T11:44:30.258Z,9.745635
2024-02-29T11:45:30.243Z,9.745903